sensor_id;sensor_type;location;lat;lon;timestamp;pressure;altitude;pressure_sealevel;temperature;humidity
32320;BME280;19080;51.750;5.888;2022-11-27T00:02:21;102356.44;;;5.50;100.00
32320;BME280;19080;51.750;5.888;2022-11-27T00:04:48;102229.88;;;4.74;100.00
32320;BME280;19080;51.750;5.888;2022-11-27T00:07:14;102267.38;;;4.99;100.00
32320;BME280;19080;51.750;5.888;2022-11-27T00:09:41;102360.59;;;5.47;100.00
32320;BME280;19080;51.750;5.888;2022-11-27T00:12:08;102258.81;;;4.88;100.00
32320;BME280;19080;51.750;5.888;2022-11-27T00:14:35;102221.59;;;4.68;100.00
32320;BME280;19080;51.750;5.888;2022-11-27T00:17:02;102257.47;;;4.95;100.00
32320;BME280;19080;51.750;5.888;2022-11-27T00:19:28;102328.63;;;5.41;100.00
32320;BME280;19080;51.750;5.888;2022-11-27T00:21:55;102203.75;;;4.77;100.00
32320;BME280;19080;51.750;5.888;2022-11-27T00:24:22;102238.78;;;5.05;100.00
32320;BME280;19080;51.750;5.888;2022-11-27T00:26:49;102242.41;;;5.07;100.00
32320;BME280;19080;51.750;5.888;2022-11-27T00:29:15;102288.13;;;5.39;100.00
32320;BME280;19080;51.750;5.888;2022-11-27T00:31:42;102268.16;;;5.28;100.00
32320;BME280;19080;51.750;5.888;2022-11-27T00:34:09;102239.16;;;5.11;100.00
32320;BME280;19080;51.750;5.888;2022-11-27T00:36:36;102284.50;;;5.37;100.00
32320;BME280;19080;51.750;5.888;2022-11-27T00:39:04;102284.97;;;5.30;100.00
32320;BME280;19080;51.750;5.888;2022-11-27T00:41:31;102312.09;;;5.43;100.00
32320;BME280;19080;51.750;5.888;2022-11-27T00:43:57;102317.00;;;5.52;100.00
32320;BME280;19080;51.750;5.888;2022-11-27T00:46:27;102336.25;;;5.66;100.00
32320;BME280;19080;51.750;5.888;2022-11-27T00:48:59;102333.53;;;5.64;100.00
32320;BME280;19080;51.750;5.888;2022-11-27T00:51:27;102275.78;;;5.38;100.00
32320;BME280;19080;51.750;5.888;2022-11-27T00:53:54;102317.56;;;5.61;100.00
32320;BME280;19080;51.750;5.888;2022-11-27T00:56:25;102241.97;;;5.14;100.00
32320;BME280;19080;51.750;5.888;2022-11-27T00:58:52;102255.81;;;5.27;100.00
32320;BME280;19080;51.750;5.888;2022-11-27T01:01:25;102275.78;;;5.23;100.00
32320;BME280;19080;51.750;5.888;2022-11-27T01:03:54;102301.47;;;5.42;100.00
32320;BME280;19080;51.750;5.888;2022-11-27T01:06:21;102177.88;;;4.70;100.00
32320;BME280;19080;51.750;5.888;2022-11-27T01:08:48;102279.16;;;5.35;100.00
32320;BME280;19080;51.750;5.888;2022-11-27T01:11:21;102178.44;;;4.79;100.00
32320;BME280;19080;51.750;5.888;2022-11-27T01:13:48;102189.97;;;4.81;100.00
32320;BME280;19080;51.750;5.888;2022-11-27T01:16:17;102175.72;;;4.63;100.00
32320;BME280;19080;51.750;5.888;2022-11-27T01:18:47;102231.41;;;4.85;100.00
32320;BME280;19080;51.750;5.888;2022-11-27T01:21:18;102283.44;;;5.18;100.00
32320;BME280;19080;51.750;5.888;2022-11-27T01:23:46;102215.63;;;4.85;100.00
32320;BME280;19080;51.750;5.888;2022-11-27T01:26:13;102194.47;;;4.69;100.00
32320;BME280;19080;51.750;5.888;2022-11-27T01:28:40;102281.78;;;5.20;100.00
32320;BME280;19080;51.750;5.888;2022-11-27T01:31:13;102286.72;;;5.14;100.00
32320;BME280;19080;51.750;5.888;2022-11-27T01:33:39;102190.09;;;4.54;100.00
32320;BME280;19080;51.750;5.888;2022-11-27T01:36:07;102264.47;;;4.95;100.00
32320;BME280;19080;51.750;5.888;2022-11-27T01:38:34;102183.72;;;4.36;100.00
32320;BME280;19080;51.750;5.888;2022-11-27T01:41:07;102228.75;;;4.55;100.00
32320;BME280;19080;51.750;5.888;2022-11-27T01:43:55;102188.69;;;4.32;100.00
32320;BME280;19080;51.750;5.888;2022-11-27T01:51:47;102197.69;;;4.35;100.00
32320;BME280;19080;51.750;5.888;2022-11-27T01:54:15;102284.31;;;4.89;100.00
32320;BME280;19080;51.750;5.888;2022-11-27T01:56:45;102256.16;;;4.74;100.00
32320;BME280;19080;51.750;5.888;2022-11-27T01:59:15;102212.69;;;4.51;100.00
32320;BME280;19080;51.750;5.888;2022-11-27T02:01:42;102270.34;;;4.90;100.00
32320;BME280;19080;51.750;5.888;2022-11-27T02:04:09;102194.03;;;4.61;100.00
32320;BME280;19080;51.750;5.888;2022-11-27T02:06:35;102194.66;;;4.72;100.00
32320;BME280;19080;51.750;5.888;2022-11-27T02:09:02;102154.13;;;4.53;100.00
32320;BME280;19080;51.750;5.888;2022-11-27T02:14:49;102200.13;;;5.04;100.00
32320;BME280;19080;51.750;5.888;2022-11-27T02:17:29;102163.13;;;4.86;100.00
32320;BME280;19080;51.750;5.888;2022-11-27T02:23:14;102055.03;;;4.38;100.00
32320;BME280;19080;51.750;5.888;2022-11-27T02:28:20;102193.81;;;5.32;100.00
32320;BME280;19080;51.750;5.888;2022-11-27T02:31:01;102134.44;;;4.91;100.00
32320;BME280;19080;51.750;5.888;2022-11-27T02:33:32;102173.22;;;5.24;100.00
32320;BME280;19080;51.750;5.888;2022-11-27T02:36:07;102168.84;;;5.25;100.00
32320;BME280;19080;51.750;5.888;2022-11-27T02:38:40;102134.59;;;5.09;100.00
32320;BME280;19080;51.750;5.888;2022-11-27T02:41:15;102048.94;;;4.68;100.00
32320;BME280;19080;51.750;5.888;2022-11-27T02:43:46;102058.00;;;4.73;100.00
32320;BME280;19080;51.750;5.888;2022-11-27T02:46:16;102076.13;;;4.83;100.00
32320;BME280;19080;51.750;5.888;2022-11-27T02:48:50;102076.03;;;4.82;100.00
32320;BME280;19080;51.750;5.888;2022-11-27T02:51:26;102105.22;;;5.01;100.00
32320;BME280;19080;51.750;5.888;2022-11-27T02:53:57;102112.47;;;5.05;100.00
32320;BME280;19080;51.750;5.888;2022-11-27T02:56:27;102098.69;;;4.95;100.00
32320;BME280;19080;51.750;5.888;2022-11-27T02:59:00;102070.41;;;4.76;100.00
32320;BME280;19080;51.750;5.888;2022-11-27T03:01:31;102120.53;;;5.08;100.00
32320;BME280;19080;51.750;5.888;2022-11-27T03:04:01;102094.16;;;4.92;100.00
32320;BME280;19080;51.750;5.888;2022-11-27T03:06:36;102149.06;;;5.32;100.00
32320;BME280;19080;51.750;5.888;2022-11-27T03:09:09;102088.16;;;5.09;100.00
32320;BME280;19080;51.750;5.888;2022-11-27T03:11:38;102039.22;;;4.82;100.00
32320;BME280;19080;51.750;5.888;2022-11-27T03:14:07;102110.56;;;5.34;100.00
32320;BME280;19080;51.750;5.888;2022-11-27T03:16:39;102063.47;;;5.07;100.00
32320;BME280;19080;51.750;5.888;2022-11-27T03:19:34;102124.28;;;5.59;100.00
32320;BME280;19080;51.750;5.888;2022-11-27T03:22:03;102015.59;;;4.98;100.00
32320;BME280;19080;51.750;5.888;2022-11-27T03:24:33;102010.31;;;4.98;100.00
32320;BME280;19080;51.750;5.888;2022-11-27T03:27:01;102084.56;;;5.40;100.00
32320;BME280;19080;51.750;5.888;2022-11-27T03:29:39;102123.50;;;5.76;100.00
32320;BME280;19080;51.750;5.888;2022-11-27T03:32:09;102060.47;;;5.48;100.00
32320;BME280;19080;51.750;5.888;2022-11-27T03:34:36;102142.31;;;5.99;100.00
32320;BME280;19080;51.750;5.888;2022-11-27T03:37:03;102044.75;;;5.50;100.00
32320;BME280;19080;51.750;5.888;2022-11-27T03:39:31;102081.34;;;5.76;100.00
32320;BME280;19080;51.750;5.888;2022-11-27T03:42:08;102153.69;;;6.14;100.00
32320;BME280;19080;51.750;5.888;2022-11-27T03:50:02;102156.25;;;6.29;100.00
32320;BME280;19080;51.750;5.888;2022-11-27T03:52:43;102149.50;;;6.34;100.00
32320;BME280;19080;51.750;5.888;2022-11-27T03:55:16;102150.41;;;6.34;100.00
32320;BME280;19080;51.750;5.888;2022-11-27T03:57:57;102092.50;;;6.03;100.00
32320;BME280;19080;51.750;5.888;2022-11-27T04:00:29;102146.09;;;6.36;100.00
32320;BME280;19080;51.750;5.888;2022-11-27T04:02:56;102034.75;;;5.75;100.00
32320;BME280;19080;51.750;5.888;2022-11-27T04:05:23;102069.28;;;5.96;100.00
32320;BME280;19080;51.750;5.888;2022-11-27T04:07:50;102045.47;;;5.95;100.00
32320;BME280;19080;51.750;5.888;2022-11-27T04:10:17;102086.31;;;6.19;100.00
32320;BME280;19080;51.750;5.888;2022-11-27T04:12:43;102048.25;;;5.98;100.00
32320;BME280;19080;51.750;5.888;2022-11-27T04:15:10;102007.72;;;5.79;100.00
32320;BME280;19080;51.750;5.888;2022-11-27T04:17:37;102018.59;;;5.85;100.00
32320;BME280;19080;51.750;5.888;2022-11-27T04:20:05;102038.38;;;5.94;100.00
32320;BME280;19080;51.750;5.888;2022-11-27T04:22:32;102033.13;;;5.94;100.00
32320;BME280;19080;51.750;5.888;2022-11-27T04:24:58;102109.19;;;6.36;100.00
32320;BME280;19080;51.750;5.888;2022-11-27T04:27:25;102026.03;;;5.93;100.00
32320;BME280;19080;51.750;5.888;2022-11-27T04:29:51;102017.78;;;5.86;100.00
32320;BME280;19080;51.750;5.888;2022-11-27T04:32:18;102085.78;;;6.26;100.00
32320;BME280;19080;51.750;5.888;2022-11-27T04:34:44;102002.78;;;5.85;100.00
32320;BME280;19080;51.750;5.888;2022-11-27T04:37:11;102036.06;;;6.00;100.00
32320;BME280;19080;51.750;5.888;2022-11-27T04:39:38;102091.56;;;6.35;100.00
32320;BME280;19080;51.750;5.888;2022-11-27T04:42:05;101978.44;;;5.73;100.00
32320;BME280;19080;51.750;5.888;2022-11-27T04:44:32;102044.78;;;6.15;100.00
32320;BME280;19080;51.750;5.888;2022-11-27T04:46:58;101994.72;;;5.82;100.00
32320;BME280;19080;51.750;5.888;2022-11-27T04:49:26;102071.63;;;6.24;100.00
32320;BME280;19080;51.750;5.888;2022-11-27T04:51:52;102088.91;;;6.35;100.00
32320;BME280;19080;51.750;5.888;2022-11-27T04:54:19;102067.69;;;6.16;100.00
32320;BME280;19080;51.750;5.888;2022-11-27T04:56:46;102040.84;;;6.07;100.00
32320;BME280;19080;51.750;5.888;2022-11-27T04:59:13;102035.41;;;6.04;100.00
32320;BME280;19080;51.750;5.888;2022-11-27T05:01:40;102010.06;;;5.90;100.00
32320;BME280;19080;51.750;5.888;2022-11-27T05:04:06;102013.09;;;5.97;100.00
32320;BME280;19080;51.750;5.888;2022-11-27T05:06:33;102003.88;;;5.89;100.00
32320;BME280;19080;51.750;5.888;2022-11-27T05:09:00;102092.63;;;6.39;100.00
32320;BME280;19080;51.750;5.888;2022-11-27T05:11:29;102006.59;;;5.91;100.00
32320;BME280;19080;51.750;5.888;2022-11-27T05:13:56;101977.03;;;5.80;100.00
32320;BME280;19080;51.750;5.888;2022-11-27T05:19:14;101994.41;;;5.93;100.00
32320;BME280;19080;51.750;5.888;2022-11-27T05:21:41;102066.84;;;6.33;100.00
32320;BME280;19080;51.750;5.888;2022-11-27T05:24:09;102024.94;;;6.05;100.00
32320;BME280;19080;51.750;5.888;2022-11-27T05:26:36;102025.50;;;6.16;100.00
32320;BME280;19080;51.750;5.888;2022-11-27T05:29:03;102003.94;;;6.07;100.00
32320;BME280;19080;51.750;5.888;2022-11-27T05:31:30;101906.75;;;5.63;100.00
32320;BME280;19080;51.750;5.888;2022-11-27T05:33:57;102041.28;;;6.32;100.00
32320;BME280;19080;51.750;5.888;2022-11-27T05:36:24;101996.19;;;6.10;100.00
32320;BME280;19080;51.750;5.888;2022-11-27T05:38:51;101982.69;;;6.04;100.00
32320;BME280;19080;51.750;5.888;2022-11-27T05:41:17;101982.84;;;6.07;100.00
32320;BME280;19080;51.750;5.888;2022-11-27T05:43:44;102012.72;;;6.24;100.00
32320;BME280;19080;51.750;5.888;2022-11-27T05:46:13;102059.03;;;6.52;100.00
32320;BME280;19080;51.750;5.888;2022-11-27T05:48:40;102045.03;;;6.53;100.00
32320;BME280;19080;51.750;5.888;2022-11-27T05:51:07;102033.09;;;6.44;100.00
32320;BME280;19080;51.750;5.888;2022-11-27T05:53:34;101957.31;;;6.06;100.00
32320;BME280;19080;51.750;5.888;2022-11-27T05:56:05;101921.94;;;5.84;100.00
32320;BME280;19080;51.750;5.888;2022-11-27T05:58:33;101973.69;;;6.16;100.00
32320;BME280;19080;51.750;5.888;2022-11-27T06:01:00;101963.00;;;6.13;100.00
32320;BME280;19080;51.750;5.888;2022-11-27T06:03:27;102014.72;;;6.45;100.00
32320;BME280;19080;51.750;5.888;2022-11-27T06:05:54;101986.06;;;6.35;100.00
32320;BME280;19080;51.750;5.888;2022-11-27T06:08:20;102044.06;;;6.69;100.00
32320;BME280;19080;51.750;5.888;2022-11-27T06:10:49;101944.69;;;6.16;100.00
32320;BME280;19080;51.750;5.888;2022-11-27T06:13:15;101996.19;;;6.44;100.00
32320;BME280;19080;51.750;5.888;2022-11-27T06:15:42;101953.66;;;6.20;100.00
32320;BME280;19080;51.750;5.888;2022-11-27T06:18:10;101935.66;;;6.11;100.00
32320;BME280;19080;51.750;5.888;2022-11-27T06:20:37;101927.28;;;6.02;100.00
32320;BME280;19080;51.750;5.888;2022-11-27T06:23:09;101943.78;;;6.16;100.00
32320;BME280;19080;51.750;5.888;2022-11-27T06:25:36;101916.97;;;6.07;100.00
32320;BME280;19080;51.750;5.888;2022-11-27T06:28:02;101958.72;;;6.33;100.00
32320;BME280;19080;51.750;5.888;2022-11-27T06:30:29;101931.00;;;6.24;100.00
32320;BME280;19080;51.750;5.888;2022-11-27T06:32:55;101928.44;;;6.25;100.00
32320;BME280;19080;51.750;5.888;2022-11-27T06:35:22;101914.13;;;6.20;100.00
32320;BME280;19080;51.750;5.888;2022-11-27T06:37:49;101875.47;;;6.03;100.00
32320;BME280;19080;51.750;5.888;2022-11-27T06:40:16;101902.59;;;6.18;100.00
32320;BME280;19080;51.750;5.888;2022-11-27T06:42:42;101937.09;;;6.40;100.00
32320;BME280;19080;51.750;5.888;2022-11-27T06:45:09;101942.53;;;6.43;100.00
32320;BME280;19080;51.750;5.888;2022-11-27T06:47:36;101916.75;;;6.20;100.00
32320;BME280;19080;51.750;5.888;2022-11-27T06:50:03;102013.75;;;6.79;100.00
32320;BME280;19080;51.750;5.888;2022-11-27T06:52:30;101932.34;;;6.33;100.00
32320;BME280;19080;51.750;5.888;2022-11-27T06:55:02;101868.53;;;6.05;100.00
32320;BME280;19080;51.750;5.888;2022-11-27T06:57:29;101952.47;;;6.49;100.00
32320;BME280;19080;51.750;5.888;2022-11-27T06:59:55;101912.91;;;6.31;100.00
32320;BME280;19080;51.750;5.888;2022-11-27T07:02:22;101893.03;;;6.20;100.00
32320;BME280;19080;51.750;5.888;2022-11-27T07:04:48;101946.59;;;6.55;100.00
32320;BME280;19080;51.750;5.888;2022-11-27T07:07:16;101969.28;;;6.69;100.00
32320;BME280;19080;51.750;5.888;2022-11-27T07:09:42;101987.59;;;6.83;100.00
32320;BME280;19080;51.750;5.888;2022-11-27T07:12:09;101931.69;;;6.55;100.00
32320;BME280;19080;51.750;5.888;2022-11-27T07:14:36;102002.97;;;6.92;100.00
32320;BME280;19080;51.750;5.888;2022-11-27T07:17:03;101918.25;;;6.50;100.00
32320;BME280;19080;51.750;5.888;2022-11-27T07:19:30;101888.72;;;6.40;100.00
32320;BME280;19080;51.750;5.888;2022-11-27T07:21:57;101889.78;;;6.43;100.00
32320;BME280;19080;51.750;5.888;2022-11-27T07:24:23;101924.13;;;6.63;100.00
32320;BME280;19080;51.750;5.888;2022-11-27T07:26:55;101916.16;;;6.61;100.00
32320;BME280;19080;51.750;5.888;2022-11-27T07:29:21;101900.78;;;6.52;100.00
32320;BME280;19080;51.750;5.888;2022-11-27T07:31:48;101942.81;;;6.85;100.00
32320;BME280;19080;51.750;5.888;2022-11-27T07:34:16;101873.97;;;6.43;100.00
32320;BME280;19080;51.750;5.888;2022-11-27T07:36:47;101857.56;;;6.31;100.00
32320;BME280;19080;51.750;5.888;2022-11-27T07:39:15;101933.63;;;6.77;100.00
32320;BME280;19080;51.750;5.888;2022-11-27T07:41:59;101978.56;;;6.98;100.00
32320;BME280;19080;51.750;5.888;2022-11-27T07:44:46;101888.41;;;6.51;100.00
32320;BME280;19080;51.750;5.888;2022-11-27T07:47:13;101872.31;;;6.45;100.00
32320;BME280;19080;51.750;5.888;2022-11-27T07:49:39;101884.50;;;6.43;100.00
32320;BME280;19080;51.750;5.888;2022-11-27T07:52:06;101936.78;;;6.70;100.00
32320;BME280;19080;51.750;5.888;2022-11-27T07:54:32;101927.91;;;6.68;100.00
32320;BME280;19080;51.750;5.888;2022-11-27T07:56:59;101900.72;;;6.51;100.00
32320;BME280;19080;51.750;5.888;2022-11-27T07:59:26;101881.03;;;6.44;100.00
32320;BME280;19080;51.750;5.888;2022-11-27T08:01:53;101928.34;;;6.77;100.00
32320;BME280;19080;51.750;5.888;2022-11-27T08:04:20;101867.84;;;6.44;100.00
32320;BME280;19080;51.750;5.888;2022-11-27T08:06:48;101900.69;;;6.69;100.00
32320;BME280;19080;51.750;5.888;2022-11-27T08:09:15;101861.53;;;6.41;100.00
32320;BME280;19080;51.750;5.888;2022-11-27T08:11:41;101936.00;;;6.90;100.00
32320;BME280;19080;51.750;5.888;2022-11-27T08:14:10;101922.38;;;6.81;100.00
32320;BME280;19080;51.750;5.888;2022-11-27T08:16:38;101938.50;;;6.87;100.00
32320;BME280;19080;51.750;5.888;2022-11-27T08:19:05;101917.78;;;6.77;100.00
32320;BME280;19080;51.750;5.888;2022-11-27T08:21:32;101847.28;;;6.37;100.00
32320;BME280;19080;51.750;5.888;2022-11-27T08:23:59;101862.22;;;6.37;100.00
32320;BME280;19080;51.750;5.888;2022-11-27T08:26:26;101888.03;;;6.62;100.00
32320;BME280;19080;51.750;5.888;2022-11-27T08:28:55;101819.13;;;6.18;100.00
32320;BME280;19080;51.750;5.888;2022-11-27T08:31:23;101866.72;;;6.39;100.00
32320;BME280;19080;51.750;5.888;2022-11-27T08:33:52;101900.47;;;6.64;100.00
32320;BME280;19080;51.750;5.888;2022-11-27T08:36:18;101829.97;;;6.25;100.00
32320;BME280;19080;51.750;5.888;2022-11-27T08:38:46;101864.25;;;6.42;100.00
32320;BME280;19080;51.750;5.888;2022-11-27T08:41:13;101822.81;;;6.22;100.00
32320;BME280;19080;51.750;5.888;2022-11-27T08:43:39;101840.75;;;6.29;100.00
32320;BME280;19080;51.750;5.888;2022-11-27T08:46:07;101906.19;;;6.73;100.00
32320;BME280;19080;51.750;5.888;2022-11-27T08:48:38;101843.97;;;6.41;100.00
32320;BME280;19080;51.750;5.888;2022-11-27T08:51:13;101887.50;;;6.69;100.00
32320;BME280;19080;51.750;5.888;2022-11-27T08:53:41;101777.28;;;6.07;100.00
32320;BME280;19080;51.750;5.888;2022-11-27T08:56:19;101818.38;;;6.39;100.00
32320;BME280;19080;51.750;5.888;2022-11-27T08:58:46;101881.47;;;6.71;100.00
32320;BME280;19080;51.750;5.888;2022-11-27T09:01:33;101898.00;;;6.87;100.00
32320;BME280;19080;51.750;5.888;2022-11-27T09:04:00;101773.34;;;6.16;100.00
32320;BME280;19080;51.750;5.888;2022-11-27T09:06:29;101906.00;;;6.88;100.00
32320;BME280;19080;51.750;5.888;2022-11-27T09:09:00;101816.09;;;6.46;100.00
32320;BME280;19080;51.750;5.888;2022-11-27T09:11:28;101782.97;;;6.34;100.00
32320;BME280;19080;51.750;5.888;2022-11-27T09:14:01;101814.44;;;6.48;100.00
32320;BME280;19080;51.750;5.888;2022-11-27T09:16:27;101792.59;;;6.33;100.00
32320;BME280;19080;51.750;5.888;2022-11-27T09:18:56;101848.75;;;6.68;100.00
32320;BME280;19080;51.750;5.888;2022-11-27T09:21:25;101786.03;;;6.43;100.00
32320;BME280;19080;51.750;5.888;2022-11-27T09:24:00;101865.59;;;6.89;100.00
32320;BME280;19080;51.750;5.888;2022-11-27T09:26:28;101795.56;;;6.59;100.00
32320;BME280;19080;51.750;5.888;2022-11-27T09:28:57;101840.56;;;6.81;100.00
32320;BME280;19080;51.750;5.888;2022-11-27T09:31:23;101842.81;;;6.91;100.00
32320;BME280;19080;51.750;5.888;2022-11-27T09:33:51;101819.59;;;6.84;100.00
32320;BME280;19080;51.750;5.888;2022-11-27T09:36:21;101827.81;;;6.90;100.00
32320;BME280;19080;51.750;5.888;2022-11-27T09:38:48;101801.63;;;6.75;100.00
32320;BME280;19080;51.750;5.888;2022-11-27T09:41:34;101884.88;;;7.27;100.00
32320;BME280;19080;51.750;5.888;2022-11-27T09:46:41;101780.56;;;6.77;100.00
32320;BME280;19080;51.750;5.888;2022-11-27T09:49:14;101896.00;;;7.39;100.00
32320;BME280;19080;51.750;5.888;2022-11-27T09:51:51;101790.78;;;6.89;100.00
32320;BME280;19080;51.750;5.888;2022-11-27T09:54:27;101833.31;;;7.15;100.00
32320;BME280;19080;51.750;5.888;2022-11-27T09:56:56;101801.66;;;6.96;100.00
32320;BME280;19080;51.750;5.888;2022-11-27T09:59:45;101878.88;;;7.50;100.00
32320;BME280;19080;51.750;5.888;2022-11-27T10:02:16;101884.16;;;7.50;100.00
32320;BME280;19080;51.750;5.888;2022-11-27T10:04:44;101798.03;;;7.13;100.00
32320;BME280;19080;51.750;5.888;2022-11-27T10:07:45;101845.94;;;7.42;100.00
32320;BME280;19080;51.750;5.888;2022-11-27T10:18:51;101870.63;;;7.82;100.00
32320;BME280;19080;51.750;5.888;2022-11-27T10:22:03;101862.56;;;7.79;100.00
32320;BME280;19080;51.750;5.888;2022-11-27T10:24:33;101859.22;;;7.83;100.00
32320;BME280;19080;51.750;5.888;2022-11-27T10:27:15;101846.69;;;7.79;100.00
32320;BME280;19080;51.750;5.888;2022-11-27T10:29:47;101781.97;;;7.49;100.00
32320;BME280;19080;51.750;5.888;2022-11-27T10:32:22;101803.00;;;7.67;100.00
32320;BME280;19080;51.750;5.888;2022-11-27T10:35:16;101757.38;;;7.50;100.00
32320;BME280;19080;51.750;5.888;2022-11-27T10:37:51;101782.88;;;7.70;100.00
32320;BME280;19080;51.750;5.888;2022-11-27T10:40:24;101815.63;;;7.95;100.00
32320;BME280;19080;51.750;5.888;2022-11-27T10:43:03;101764.63;;;7.76;100.00
32320;BME280;19080;51.750;5.888;2022-11-27T10:45:41;101777.59;;;7.91;100.00
32320;BME280;19080;51.750;5.888;2022-11-27T10:48:11;101776.94;;;7.97;100.00
32320;BME280;19080;51.750;5.888;2022-11-27T10:50:38;101767.91;;;7.92;100.00
32320;BME280;19080;51.750;5.888;2022-11-27T10:53:29;101813.00;;;8.17;100.00
32320;BME280;19080;51.750;5.888;2022-11-27T10:58:33;101692.66;;;7.61;100.00
32320;BME280;19080;51.750;5.888;2022-11-27T11:01:08;101716.81;;;7.70;100.00
32320;BME280;19080;51.750;5.888;2022-11-27T11:03:35;101761.06;;;7.97;100.00
32320;BME280;19080;51.750;5.888;2022-11-27T11:06:22;101793.53;;;8.15;100.00
32320;BME280;19080;51.750;5.888;2022-11-27T11:09:02;101775.50;;;8.05;100.00
32320;BME280;19080;51.750;5.888;2022-11-27T11:11:29;101704.38;;;7.68;100.00
32320;BME280;19080;51.750;5.888;2022-11-27T11:13:56;101749.34;;;7.90;100.00
32320;BME280;19080;51.750;5.888;2022-11-27T11:16:27;101697.41;;;7.70;100.00
32320;BME280;19080;51.750;5.888;2022-11-27T11:19:00;101785.59;;;8.15;100.00
32320;BME280;19080;51.750;5.888;2022-11-27T11:21:31;101721.88;;;7.87;100.00
32320;BME280;19080;51.750;5.888;2022-11-27T11:24:00;101719.38;;;7.90;100.00
32320;BME280;19080;51.750;5.888;2022-11-27T11:26:38;101767.22;;;8.18;100.00
32320;BME280;19080;51.750;5.888;2022-11-27T11:29:23;101698.94;;;7.86;100.00
32320;BME280;19080;51.750;5.888;2022-11-27T11:31:52;101747.50;;;8.10;100.00
32320;BME280;19080;51.750;5.888;2022-11-27T11:34:24;101727.13;;;8.07;100.00
32320;BME280;19080;51.750;5.888;2022-11-27T11:37:06;101683.06;;;7.86;100.00
32320;BME280;19080;51.750;5.888;2022-11-27T11:39:43;101724.66;;;8.12;100.00
32320;BME280;19080;51.750;5.888;2022-11-27T11:42:27;101686.88;;;7.92;100.00
32320;BME280;19080;51.750;5.888;2022-11-27T11:45:01;101744.50;;;8.23;100.00
32320;BME280;19080;51.750;5.888;2022-11-27T11:47:30;101657.56;;;7.86;100.00
32320;BME280;19080;51.750;5.888;2022-11-27T11:49:57;101644.03;;;7.78;100.00
32320;BME280;19080;51.750;5.888;2022-11-27T11:52:36;101723.56;;;8.29;100.00
32320;BME280;19080;51.750;5.888;2022-11-27T11:55:14;101665.53;;;7.88;100.00
32320;BME280;19080;51.750;5.888;2022-11-27T11:57:55;101709.03;;;8.18;100.00
32320;BME280;19080;51.750;5.888;2022-11-27T12:00:26;101712.69;;;8.22;100.00
32320;BME280;19080;51.750;5.888;2022-11-27T12:03:22;101678.50;;;8.04;100.00
32320;BME280;19080;51.750;5.888;2022-11-27T12:06:14;101719.34;;;8.33;100.00
32320;BME280;19080;51.750;5.888;2022-11-27T12:08:53;101680.50;;;8.09;100.00
32320;BME280;19080;51.750;5.888;2022-11-27T12:14:40;101684.69;;;8.27;100.00
32320;BME280;19080;51.750;5.888;2022-11-27T12:23:08;101651.47;;;8.33;100.00
32320;BME280;19080;51.750;5.888;2022-11-27T12:28:46;101630.09;;;8.29;100.00
32320;BME280;19080;51.750;5.888;2022-11-27T12:34:05;101550.94;;;7.86;100.00
32320;BME280;19080;51.750;5.888;2022-11-27T12:37:03;101599.88;;;8.22;100.00
32320;BME280;19080;51.750;5.888;2022-11-27T12:39:46;101612.31;;;8.25;100.00
32320;BME280;19080;51.750;5.888;2022-11-27T12:43:13;101518.75;;;7.73;100.00
32320;BME280;19080;51.750;5.888;2022-11-27T12:45:20;101566.47;;;8.00;100.00
32320;BME280;19080;51.750;5.888;2022-11-27T12:47:55;101512.91;;;7.58;100.00
32320;BME280;19080;51.750;5.888;2022-11-27T12:50:33;101616.47;;;8.18;100.00
32320;BME280;19080;51.750;5.888;2022-11-27T12:53:06;101574.44;;;8.02;100.00
32320;BME280;19080;51.750;5.888;2022-11-27T12:55:39;101534.84;;;7.79;100.00
32320;BME280;19080;51.750;5.888;2022-11-27T12:58:24;101538.00;;;7.93;100.00
32320;BME280;19080;51.750;5.888;2022-11-27T13:01:01;101592.13;;;8.27;100.00
32320;BME280;19080;51.750;5.888;2022-11-27T13:06:21;101550.03;;;8.09;100.00
32320;BME280;19080;51.750;5.888;2022-11-27T13:08:55;101517.75;;;7.94;100.00
32320;BME280;19080;51.750;5.888;2022-11-27T13:11:27;101470.06;;;7.67;100.00
32320;BME280;19080;51.750;5.888;2022-11-27T13:14:10;101560.38;;;8.27;100.00
32320;BME280;19080;51.750;5.888;2022-11-27T13:16:45;101584.94;;;8.46;100.00
32320;BME280;19080;51.750;5.888;2022-11-27T13:19:27;101582.50;;;8.53;100.00
32320;BME280;19080;51.750;5.888;2022-11-27T13:21:56;101538.78;;;8.38;100.00
32320;BME280;19080;51.750;5.888;2022-11-27T13:24:24;101503.94;;;8.26;100.00
32320;BME280;19080;51.750;5.888;2022-11-27T13:26:59;101533.81;;;8.47;100.00
32320;BME280;19080;51.750;5.888;2022-11-27T13:29:38;101480.78;;;8.19;100.00
32320;BME280;19080;51.750;5.888;2022-11-27T13:32:08;101510.19;;;8.28;100.00
32320;BME280;19080;51.750;5.888;2022-11-27T13:34:45;101503.63;;;8.17;100.00
32320;BME280;19080;51.750;5.888;2022-11-27T13:37:27;101480.22;;;8.04;100.00
32320;BME280;19080;51.750;5.888;2022-11-27T13:40:05;101481.28;;;8.09;100.00
32320;BME280;19080;51.750;5.888;2022-11-27T13:42:40;101479.72;;;8.14;100.00
32320;BME280;19080;51.750;5.888;2022-11-27T13:45:17;101450.47;;;8.09;100.00
32320;BME280;19080;51.750;5.888;2022-11-27T13:47:45;101410.22;;;7.93;100.00
32320;BME280;19080;51.750;5.888;2022-11-27T13:50:15;101435.38;;;8.07;100.00
32320;BME280;19080;51.750;5.888;2022-11-27T13:53:02;101434.50;;;8.06;100.00
32320;BME280;19080;51.750;5.888;2022-11-27T13:55:32;101441.53;;;8.06;100.00
32320;BME280;19080;51.750;5.888;2022-11-27T13:58:00;101471.34;;;8.27;100.00
32320;BME280;19080;51.750;5.888;2022-11-27T14:03:00;101453.91;;;8.07;100.00
32320;BME280;19080;51.750;5.888;2022-11-27T14:05:41;101416.88;;;7.81;100.00
32320;BME280;19080;51.750;5.888;2022-11-27T14:08:23;101506.78;;;8.32;100.00